Time;durP1;ratioP1;P1;durP2;ratioP2;P2;SDS_P1;SDS_P2;PMS_P1;PMS_P2;Temp;Humidity;BMP_temperature;BMP_pressure;BME280_temperature;BME280_humidity;BME280_pressure;Samples;Min_cycle;Max_cycle;Signal;HPM_P1;HPM_P2
2023/09/18 00:02:16;;;;;;;2.90;2.55;;;;;;;;;;4992870;28;20210;-47
2023/09/18 00:04:43;;;;;;;2.75;2.55;;;;;;;;;;4988374;28;20203;-42
2023/09/18 00:07:11;;;;;;;4.38;2.67;;;;;;;;;;4984983;28;20205;-41
2023/09/18 00:09:38;;;;;;;3.20;2.42;;;;;;;;;;4985403;28;20235;-42
2023/09/18 00:12:06;;;;;;;2.63;2.42;;;;;;;;;;4984758;28;20319;-42
2023/09/18 00:14:35;;;;;;;2.97;2.50;;;;;;;;;;4991895;28;20243;-41
2023/09/18 00:17:02;;;;;;;2.80;2.60;;;;;;;;;;4992226;28;20214;-42
2023/09/18 00:19:29;;;;;;;2.42;2.22;;;;;;;;;;4987186;28;20318;-42
2023/09/18 00:22:00;;;;;;;3.38;2.30;;;;;;;;;;4991909;28;20245;-37
2023/09/18 00:24:27;;;;;;;2.20;2.10;;;;;;;;;;4988973;28;20212;-41
2023/09/18 00:26:54;;;;;;;2.03;1.92;;;;;;;;;;4989828;28;20256;-40
2023/09/18 00:29:22;;;;;;;2.97;2.35;;;;;;;;;;4991518;28;20319;-41
2023/09/18 00:31:50;;;;;;;2.20;2.10;;;;;;;;;;4992364;28;20227;-41
2023/09/18 00:34:17;;;;;;;2.92;2.63;;;;;;;;;;4984399;28;20296;-40
2023/09/18 00:36:45;;;;;;;3.75;2.53;;;;;;;;;;4991749;28;20674;-43
2023/09/18 00:39:12;;;;;;;3.25;2.55;;;;;;;;;;4991590;28;20227;-43
2023/09/18 00:41:40;;;;;;;2.40;2.20;;;;;;;;;;4986813;28;20286;-44
2023/09/18 00:44:08;;;;;;;2.58;2.38;;;;;;;;;;4990141;28;20432;-39
2023/09/18 00:46:35;;;;;;;3.53;2.10;;;;;;;;;;4991935;28;20200;-42
2023/09/18 00:49:04;;;;;;;2.53;2.33;;;;;;;;;;4987172;28;20239;-43
2023/09/18 00:51:31;;;;;;;2.60;2.40;;;;;;;;;;4988453;28;20274;-41
2023/09/18 00:53:59;;;;;;;3.17;2.35;;;;;;;;;;4991418;28;20255;-43
2023/09/18 00:56:26;;;;;;;2.33;2.00;;;;;;;;;;4981154;28;20207;-41
2023/09/18 00:58:54;;;;;;;3.60;3.30;;;;;;;;;;4987809;28;20211;-43
2023/09/18 01:01:22;;;;;;;2.40;2.28;;;;;;;;;;4989077;28;20286;-41
2023/09/18 01:03:50;;;;;;;2.42;2.22;;;;;;;;;;4991278;28;20207;-41
2023/09/18 01:06:20;;;;;;;2.47;2.20;;;;;;;;;;4990737;28;20204;-41
2023/09/18 01:08:49;;;;;;;3.92;2.63;;;;;;;;;;4990881;28;20257;-41
2023/09/18 01:11:23;;;;;;;2.60;2.40;;;;;;;;;;4984384;28;20367;-41
2023/09/18 01:13:54;;;;;;;2.78;2.58;;;;;;;;;;4988179;28;20334;-44
2023/09/18 01:16:26;;;;;;;2.50;2.30;;;;;;;;;;4991429;28;20212;-44
2023/09/18 01:18:53;;;;;;;4.53;2.88;;;;;;;;;;4989639;28;20214;-42
2023/09/18 01:21:22;;;;;;;2.95;2.70;;;;;;;;;;4979456;28;20231;-42
2023/09/18 01:23:51;;;;;;;3.03;2.47;;;;;;;;;;4986616;28;20222;-41
2023/09/18 01:26:18;;;;;;;3.33;2.58;;;;;;;;;;4984471;28;20214;-41
2023/09/18 01:28:45;;;;;;;2.88;2.60;;;;;;;;;;4985458;28;20207;-40
2023/09/18 01:31:12;;;;;;;3.15;2.95;;;;;;;;;;4990179;28;20211;-42
2023/09/18 01:33:40;;;;;;;2.78;2.33;;;;;;;;;;4988496;28;20216;-42
2023/09/18 01:36:08;;;;;;;3.67;3.40;;;;;;;;;;4979167;28;20209;-40
2023/09/18 01:38:36;;;;;;;3.93;2.53;;;;;;;;;;4990837;28;20199;-42
2023/09/18 01:41:04;;;;;;;3.30;2.80;;;;;;;;;;4975486;28;20319;-44
2023/09/18 01:43:31;;;;;;;2.33;2.17;;;;;;;;;;4986573;28;20214;-38
2023/09/18 01:45:59;;;;;;;4.57;2.72;;;;;;;;;;4990227;28;20220;-43
2023/09/18 01:48:26;;;;;;;2.40;2.30;;;;;;;;;;4990169;28;20200;-42
2023/09/18 01:50:53;;;;;;;2.80;2.60;;;;;;;;;;4985979;28;20227;-44
2023/09/18 01:53:20;;;;;;;2.97;2.65;;;;;;;;;;4989935;28;20228;-42
2023/09/18 01:55:48;;;;;;;3.17;2.72;;;;;;;;;;4981860;28;20215;-45
2023/09/18 01:58:16;;;;;;;3.40;2.75;;;;;;;;;;4983846;28;20456;-45
2023/09/18 02:00:43;;;;;;;4.05;2.70;;;;;;;;;;4991091;28;20228;-43
2023/09/18 02:03:10;;;;;;;2.70;2.50;;;;;;;;;;4985261;28;20579;-44
2023/09/18 02:05:37;;;;;;;3.90;2.72;;;;;;;;;;4989273;28;20391;-45
2023/09/18 02:08:05;;;;;;;4.13;2.63;;;;;;;;;;4990355;28;20211;-41
2023/09/18 02:10:32;;;;;;;3.85;3.05;;;;;;;;;;4983982;28;20227;-44
2023/09/18 02:12:59;;;;;;;2.80;2.60;;;;;;;;;;4983516;28;20254;-44
2023/09/18 02:15:32;;;;;;;4.50;2.77;;;;;;;;;;4983387;28;20218;-44
2023/09/18 02:18:00;;;;;;;4.53;3.00;;;;;;;;;;4985095;28;20208;-42
2023/09/18 02:20:27;;;;;;;5.30;3.10;;;;;;;;;;4984461;28;20231;-40
2023/09/18 02:22:54;;;;;;;5.55;2.90;;;;;;;;;;4994341;28;20208;-40
2023/09/18 02:25:21;;;;;;;2.97;2.50;;;;;;;;;;4985836;28;20219;-41
2023/09/18 02:27:49;;;;;;;4.57;2.83;;;;;;;;;;4989551;28;20226;-43
2023/09/18 02:30:16;;;;;;;3.60;2.97;;;;;;;;;;4989666;28;20227;-42
2023/09/18 02:32:45;;;;;;;6.40;2.93;;;;;;;;;;4986974;28;20223;-36
2023/09/18 02:35:12;;;;;;;2.80;2.33;;;;;;;;;;4982758;28;20230;-42
2023/09/18 02:37:39;;;;;;;3.00;2.30;;;;;;;;;;4987076;28;20266;-43
2023/09/18 02:40:07;;;;;;;3.23;2.20;;;;;;;;;;4980352;28;20230;-44
2023/09/18 02:42:34;;;;;;;5.07;2.67;;;;;;;;;;4985519;28;20196;-45
2023/09/18 02:45:02;;;;;;;2.77;2.37;;;;;;;;;;4986485;28;20673;-44
2023/09/18 02:47:29;;;;;;;6.13;2.85;;;;;;;;;;4981832;28;20200;-47
2023/09/18 02:49:57;;;;;;;3.87;2.67;;;;;;;;;;4979734;28;20732;-47
2023/09/18 02:52:24;;;;;;;3.93;2.57;;;;;;;;;;4988166;28;20230;-43
2023/09/18 02:54:51;;;;;;;5.30;2.70;;;;;;;;;;4985257;28;20208;-45
2023/09/18 02:57:19;;;;;;;4.78;2.55;;;;;;;;;;4983414;28;20215;-43
2023/09/18 02:59:46;;;;;;;2.45;2.25;;;;;;;;;;4989384;28;20242;-41
2023/09/18 03:02:13;;;;;;;2.30;2.10;;;;;;;;;;4989853;28;20217;-42
2023/09/18 03:04:40;;;;;;;2.47;2.27;;;;;;;;;;4981846;28;20212;-44
2023/09/18 03:07:08;;;;;;;3.23;2.27;;;;;;;;;;4989069;28;20214;-45
2023/09/18 03:09:36;;;;;;;2.70;2.40;;;;;;;;;;4985951;28;20304;-46
2023/09/18 03:12:03;;;;;;;3.63;2.43;;;;;;;;;;4987437;28;20582;-44
2023/09/18 03:14:30;;;;;;;3.23;2.43;;;;;;;;;;4982186;28;20210;-44
2023/09/18 03:16:57;;;;;;;4.80;2.97;;;;;;;;;;4989980;28;20208;-41
2023/09/18 03:19:24;;;;;;;7.20;2.40;;;;;;;;;;4987290;28;20231;-43
2023/09/18 03:21:51;;;;;;;5.77;3.00;;;;;;;;;;4986336;28;20212;-46
2023/09/18 03:24:20;;;;;;;3.10;2.80;;;;;;;;;;4989431;28;20211;-45
2023/09/18 03:26:49;;;;;;;2.87;2.53;;;;;;;;;;4982271;28;20577;-47
2023/09/18 03:29:16;;;;;;;3.10;2.80;;;;;;;;;;4991485;28;20424;-42
2023/09/18 03:31:42;;;;;;;6.07;2.80;;;;;;;;;;4993909;28;20218;-43
2023/09/18 03:34:09;;;;;;;2.80;2.60;;;;;;;;;;4990951;28;20204;-45
2023/09/18 03:36:37;;;;;;;3.30;3.00;;;;;;;;;;4992736;28;20271;-43
2023/09/18 03:39:04;;;;;;;3.17;2.50;;;;;;;;;;4993139;28;20231;-45
2023/09/18 03:41:34;;;;;;;6.30;2.50;;;;;;;;;;4984860;28;20255;-42
2023/09/18 03:44:01;;;;;;;2.88;2.45;;;;;;;;;;4989082;28;20204;-45
2023/09/18 03:46:28;;;;;;;2.97;2.63;;;;;;;;;;4992801;28;20207;-38
2023/09/18 03:48:57;;;;;;;3.00;2.53;;;;;;;;;;4989900;28;20203;-42
2023/09/18 03:51:24;;;;;;;4.77;3.13;;;;;;;;;;4989826;28;20215;-45
2023/09/18 03:53:51;;;;;;;4.17;2.77;;;;;;;;;;4993032;28;20232;-44
2023/09/18 03:56:18;;;;;;;3.80;2.83;;;;;;;;;;4984132;28;20215;-42
2023/09/18 03:58:49;;;;;;;2.77;2.30;;;;;;;;;;4992934;28;20214;-48
2023/09/18 04:01:16;;;;;;;2.97;2.60;;;;;;;;;;4993074;28;20218;-44
2023/09/18 04:03:43;;;;;;;3.97;2.90;;;;;;;;;;4979409;28;20335;-44
2023/09/18 04:06:11;;;;;;;3.83;2.70;;;;;;;;;;4989821;28;20210;-44
2023/09/18 04:08:38;;;;;;;3.20;2.43;;;;;;;;;;4993679;28;20208;-41
2023/09/18 04:11:07;;;;;;;2.67;2.47;;;;;;;;;;4985644;28;20228;-43
2023/09/18 04:13:34;;;;;;;2.70;2.47;;;;;;;;;;4991911;28;20235;-43
2023/09/18 04:16:03;;;;;;;2.60;2.40;;;;;;;;;;4995659;28;20305;-41
2023/09/18 04:18:31;;;;;;;4.93;2.53;;;;;;;;;;4990142;28;20216;-47
2023/09/18 04:20:58;;;;;;;3.43;2.70;;;;;;;;;;4991757;28;20326;-46
2023/09/18 04:23:26;;;;;;;4.70;2.80;;;;;;;;;;4993518;28;20207;-46
2023/09/18 04:25:54;;;;;;;3.87;2.30;;;;;;;;;;4988469;28;20208;-44
2023/09/18 04:28:22;;;;;;;6.10;2.70;;;;;;;;;;4992830;28;20208;-45
2023/09/18 04:30:49;;;;;;;5.07;3.10;;;;;;;;;;4990835;28;20236;-41
2023/09/18 04:33:18;;;;;;;2.63;2.30;;;;;;;;;;4983229;28;20319;-46
2023/09/18 04:35:45;;;;;;;4.53;2.40;;;;;;;;;;4985536;28;20211;-46
2023/09/18 04:38:14;;;;;;;2.63;2.43;;;;;;;;;;4991472;28;20214;-44
2023/09/18 04:40:41;;;;;;;2.80;2.53;;;;;;;;;;4984398;28;20227;-46
2023/09/18 04:43:08;;;;;;;2.13;2.03;;;;;;;;;;4986687;28;20210;-42
2023/09/18 04:45:35;;;;;;;2.90;2.60;;;;;;;;;;4989478;28;20211;-41
2023/09/18 04:48:05;;;;;;;4.23;2.80;;;;;;;;;;4989576;28;20215;-46
2023/09/18 04:50:34;;;;;;;3.97;2.60;;;;;;;;;;4982951;28;20227;-45
2023/09/18 04:53:02;;;;;;;3.80;2.60;;;;;;;;;;4991896;28;20234;-43
2023/09/18 04:55:31;;;;;;;3.10;2.60;;;;;;;;;;4984035;28;20298;-46
2023/09/18 04:57:59;;;;;;;3.03;2.27;;;;;;;;;;4986571;28;20314;-42
2023/09/18 05:00:26;;;;;;;3.13;2.40;;;;;;;;;;4991546;28;20223;-39
2023/09/18 05:02:53;;;;;;;3.97;2.30;;;;;;;;;;4989663;28;20208;-44
2023/09/18 05:05:21;;;;;;;4.63;2.30;;;;;;;;;;4985445;28;20299;-43
2023/09/18 05:07:50;;;;;;;2.97;2.27;;;;;;;;;;4991734;28;20279;-40
2023/09/18 05:10:17;;;;;;;5.23;2.63;;;;;;;;;;4982057;28;20698;-42
2023/09/18 05:12:45;;;;;;;3.93;2.80;;;;;;;;;;4991429;28;20713;-40
2023/09/18 05:15:12;;;;;;;3.20;2.13;;;;;;;;;;4993974;28;20283;-42
2023/09/18 05:17:43;;;;;;;3.77;2.57;;;;;;;;;;4983939;28;20241;-40
2023/09/18 05:20:13;;;;;;;4.67;2.60;;;;;;;;;;4979163;28;20232;-42
2023/09/18 05:22:41;;;;;;;2.63;2.40;;;;;;;;;;4983706;28;20219;-39
2023/09/18 05:25:10;;;;;;;3.70;2.73;;;;;;;;;;4983384;28;20205;-43
2023/09/18 05:27:43;;;;;;;5.03;2.37;;;;;;;;;;4984360;28;20215;-45
2023/09/18 05:30:11;;;;;;;3.47;2.60;;;;;;;;;;4992873;28;20227;-41
2023/09/18 05:32:38;;;;;;;2.60;2.40;;;;;;;;;;4993182;28;20213;-44
2023/09/18 05:35:06;;;;;;;5.30;2.80;;;;;;;;;;4990365;28;20218;-43
2023/09/18 05:37:35;;;;;;;3.47;2.30;;;;;;;;;;4984177;28;20212;-43
2023/09/18 05:40:05;;;;;;;3.03;2.73;;;;;;;;;;4985607;28;20223;-41
2023/09/18 05:42:33;;;;;;;3.00;2.73;;;;;;;;;;4989068;28;20240;-45
2023/09/18 05:45:00;;;;;;;2.73;2.30;;;;;;;;;;4992546;28;20227;-37
2023/09/18 05:47:29;;;;;;;5.88;2.20;;;;;;;;;;4992397;28;20208;-44
2023/09/18 05:49:56;;;;;;;2.50;2.30;;;;;;;;;;4990017;28;20231;-41
2023/09/18 05:52:25;;;;;;;5.13;2.63;;;;;;;;;;4984825;28;20247;-40
2023/09/18 05:54:52;;;;;;;3.10;1.97;;;;;;;;;;4989238;28;20211;-43
2023/09/18 05:57:19;;;;;;;2.97;2.10;;;;;;;;;;4986451;28;20219;-40
2023/09/18 05:59:48;;;;;;;4.53;2.97;;;;;;;;;;4983219;28;20598;-44
2023/09/18 06:02:17;;;;;;;4.40;2.60;;;;;;;;;;4984666;28;20227;-44
2023/09/18 06:04:44;;;;;;;4.60;2.30;;;;;;;;;;4989531;28;20207;-43
2023/09/18 06:07:12;;;;;;;4.40;2.27;;;;;;;;;;4989084;28;20211;-40
2023/09/18 06:09:40;;;;;;;2.53;2.20;;;;;;;;;;4974323;28;20238;-44
2023/09/18 06:12:09;;;;;;;5.50;3.20;;;;;;;;;;4984619;28;20216;-44
2023/09/18 06:14:38;;;;;;;4.63;2.60;;;;;;;;;;4984341;28;20235;-45
2023/09/18 06:17:06;;;;;;;3.30;2.87;;;;;;;;;;4990353;28;20490;-41
2023/09/18 06:19:35;;;;;;;3.87;2.40;;;;;;;;;;4988773;28;20234;-42
2023/09/18 06:22:02;;;;;;;4.17;2.37;;;;;;;;;;4980474;28;20208;-43
2023/09/18 06:24:31;;;;;;;2.63;2.40;;;;;;;;;;4979111;28;20203;-44
2023/09/18 06:26:59;;;;;;;7.43;2.50;;;;;;;;;;4987677;28;20232;-43
2023/09/18 06:29:26;;;;;;;4.68;2.55;;;;;;;;;;4987274;28;20265;-43
2023/09/18 06:31:53;;;;;;;4.60;2.67;;;;;;;;;;4991918;28;20251;-43
2023/09/18 06:34:21;;;;;;;3.60;2.63;;;;;;;;;;4988161;28;20309;-42
2023/09/18 06:36:48;;;;;;;8.30;2.77;;;;;;;;;;4990613;28;20210;-43
2023/09/18 06:39:16;;;;;;;2.83;2.13;;;;;;;;;;4991658;28;20234;-45
2023/09/18 06:41:43;;;;;;;2.30;2.20;;;;;;;;;;4986249;28;20263;-44
2023/09/18 06:44:10;;;;;;;4.10;2.57;;;;;;;;;;4992661;28;20213;-43
2023/09/18 06:46:37;;;;;;;4.20;2.80;;;;;;;;;;4992699;28;20254;-43
2023/09/18 06:49:04;;;;;;;4.97;2.70;;;;;;;;;;4992412;28;20223;-42
2023/09/18 06:51:33;;;;;;;4.23;2.73;;;;;;;;;;4977929;28;20208;-43
2023/09/18 06:54:02;;;;;;;5.43;2.53;;;;;;;;;;4987944;28;20239;-43
2023/09/18 06:56:29;;;;;;;2.37;2.13;;;;;;;;;;4985401;28;20284;-41
2023/09/18 06:58:56;;;;;;;5.50;2.90;;;;;;;;;;4990356;28;20203;-39
2023/09/18 07:01:25;;;;;;;3.50;2.63;;;;;;;;;;4996494;28;20251;-44
2023/09/18 07:03:53;;;;;;;3.00;2.30;;;;;;;;;;4991592;28;20207;-44
2023/09/18 07:06:21;;;;;;;6.57;2.40;;;;;;;;;;4995186;28;20283;-42
2023/09/18 07:08:50;;;;;;;5.23;2.60;;;;;;;;;;4995955;28;20204;-41
2023/09/18 07:11:17;;;;;;;3.13;2.40;;;;;;;;;;4982768;28;20200;-41
2023/09/18 07:13:44;;;;;;;3.60;2.83;;;;;;;;;;4987949;28;20226;-45
2023/09/18 07:16:13;;;;;;;3.30;2.50;;;;;;;;;;4988772;28;20225;-44
2023/09/18 07:19:04;;;;;;;3.73;2.60;;;;;;;;;;4988926;28;20212;-40
2023/09/18 07:21:31;;;;;;;5.00;2.53;;;;;;;;;;4991887;28;20288;-41
2023/09/18 07:24:00;;;;;;;7.33;2.70;;;;;;;;;;4989947;28;20663;-44
2023/09/18 07:26:27;;;;;;;3.33;2.60;;;;;;;;;;4988941;28;20713;-41
2023/09/18 07:28:54;;;;;;;3.47;2.87;;;;;;;;;;4994295;28;20291;-39
2023/09/18 07:31:32;;;;;;;3.67;2.97;;;;;;;;;;4995516;28;20214;-46
2023/09/18 07:34:00;;;;;;;4.73;2.70;;;;;;;;;;4988780;28;20212;-44
2023/09/18 07:36:28;;;;;;;3.43;2.83;;;;;;;;;;4992001;28;20207;-40
2023/09/18 07:38:56;;;;;;;4.90;2.60;;;;;;;;;;4987717;28;20200;-45
2023/09/18 07:41:25;;;;;;;4.77;2.80;;;;;;;;;;4987807;28;20298;-45
2023/09/18 07:43:52;;;;;;;3.93;2.70;;;;;;;;;;4987462;28;20215;-44
2023/09/18 07:46:19;;;;;;;5.17;2.50;;;;;;;;;;4982065;28;20251;-45
2023/09/18 07:48:46;;;;;;;4.47;2.67;;;;;;;;;;4991719;28;20214;-44
2023/09/18 07:51:13;;;;;;;4.70;2.80;;;;;;;;;;4990069;28;20200;-34
2023/09/18 07:53:42;;;;;;;5.90;2.53;;;;;;;;;;4989823;28;20224;-45
2023/09/18 07:56:09;;;;;;;6.90;2.37;;;;;;;;;;4987867;28;20203;-41
2023/09/18 07:58:38;;;;;;;3.03;2.13;;;;;;;;;;4980323;28;20240;-43
2023/09/18 08:01:06;;;;;;;8.97;2.13;;;;;;;;;;4986346;28;20255;-36
2023/09/18 08:03:33;;;;;;;2.33;1.63;;;;;;;;;;4988296;28;20212;-44
2023/09/18 08:06:00;;;;;;;3.37;2.00;;;;;;;;;;4990252;28;20658;-44
2023/09/18 08:08:30;;;;;;;3.93;1.70;;;;;;;;;;4991917;28;20314;-37
2023/09/18 08:10:58;;;;;;;4.73;1.77;;;;;;;;;;4988937;28;20224;-41
2023/09/18 08:13:25;;;;;;;2.70;1.33;;;;;;;;;;4983828;28;20271;-43
2023/09/18 08:15:54;;;;;;;4.00;1.47;;;;;;;;;;4991739;28;20291;-42
2023/09/18 08:18:21;;;;;;;3.90;1.80;;;;;;;;;;4991378;28;20290;-43
2023/09/18 08:20:48;;;;;;;4.93;1.73;;;;;;;;;;4984705;28;20246;-41
2023/09/18 08:23:15;;;;;;;4.60;1.50;;;;;;;;;;4989291;28;20278;-43
2023/09/18 08:25:42;;;;;;;7.73;2.60;;;;;;;;;;4980767;28;20239;-45
2023/09/18 08:28:09;;;;;;;2.15;1.02;;;;;;;;;;4989613;28;20211;-43
2023/09/18 08:30:39;;;;;;;3.23;1.47;;;;;;;;;;4986352;28;20228;-42
2023/09/18 08:33:08;;;;;;;3.28;1.20;;;;;;;;;;4985358;28;20207;-45
2023/09/18 08:35:35;;;;;;;2.87;1.30;;;;;;;;;;4984645;28;20223;-39
2023/09/18 08:38:03;;;;;;;3.37;1.37;;;;;;;;;;4983923;28;20291;-45
2023/09/18 08:40:30;;;;;;;4.47;1.13;;;;;;;;;;4979648;28;20220;-46
2023/09/18 08:42:59;;;;;;;7.23;1.27;;;;;;;;;;4989111;28;20211;-42
2023/09/18 08:45:29;;;;;;;3.70;1.40;;;;;;;;;;4988661;28;20236;-39
2023/09/18 08:47:56;;;;;;;4.93;1.30;;;;;;;;;;4989879;28;20204;-44
2023/09/18 08:50:25;;;;;;;3.57;1.17;;;;;;;;;;4984013;28;20560;-44
2023/09/18 08:52:52;;;;;;;4.57;1.23;;;;;;;;;;4984664;28;20280;-43
2023/09/18 08:55:19;;;;;;;3.97;1.10;;;;;;;;;;4980876;28;20621;-45
2023/09/18 08:57:47;;;;;;;2.17;1.00;;;;;;;;;;4987362;28;20212;-42
2023/09/18 09:00:17;;;;;;;3.53;1.33;;;;;;;;;;4984690;28;20232;-45
2023/09/18 09:02:44;;;;;;;6.30;1.53;;;;;;;;;;4984420;28;20208;-45
2023/09/18 09:05:12;;;;;;;1.90;1.03;;;;;;;;;;4990350;28;20231;-41
2023/09/18 09:07:40;;;;;;;3.20;1.10;;;;;;;;;;4990253;28;20215;-43
2023/09/18 09:10:14;;;;;;;1.90;0.70;;;;;;;;;;4984836;28;20227;-38
2023/09/18 09:12:48;;;;;;;3.17;1.13;;;;;;;;;;4987438;28;20207;-44
2023/09/18 09:15:15;;;;;;;2.00;0.90;;;;;;;;;;4993700;28;20238;-39
2023/09/18 09:17:44;;;;;;;1.77;1.20;;;;;;;;;;4989384;28;20212;-43
2023/09/18 09:20:11;;;;;;;4.97;1.20;;;;;;;;;;4986264;28;20229;-44
2023/09/18 09:22:40;;;;;;;6.17;1.23;;;;;;;;;;4986468;28;20212;-40
2023/09/18 09:25:23;;;;;;;3.67;1.43;;;;;;;;;;4988363;28;20227;-40
2023/09/18 09:27:50;;;;;;;4.23;1.33;;;;;;;;;;4991992;28;20209;-41
2023/09/18 09:30:20;;;;;;;2.90;0.97;;;;;;;;;;4990536;28;20231;-43
2023/09/18 09:32:49;;;;;;;2.87;1.03;;;;;;;;;;4987533;28;20208;-42
2023/09/18 09:35:21;;;;;;;1.47;1.00;;;;;;;;;;4988510;28;20223;-41
2023/09/18 09:37:50;;;;;;;1.33;0.97;;;;;;;;;;4991761;28;20290;-45
2023/09/18 09:40:18;;;;;;;1.53;1.00;;;;;;;;;;4983075;28;20228;-42
2023/09/18 09:42:45;;;;;;;2.63;1.13;;;;;;;;;;4992623;28;20211;-42
2023/09/18 09:45:14;;;;;;;2.67;1.10;;;;;;;;;;4987046;28;20283;-44
2023/09/18 09:47:41;;;;;;;3.23;1.20;;;;;;;;;;4987236;28;20204;-45
2023/09/18 09:50:10;;;;;;;1.37;0.97;;;;;;;;;;4980590;28;20271;-45
2023/09/18 09:52:43;;;;;;;1.97;0.90;;;;;;;;;;4990309;28;20216;-42
2023/09/18 09:55:24;;;;;;;2.07;1.10;;;;;;;;;;4984890;28;20211;-41
2023/09/18 09:57:53;;;;;;;2.33;1.33;;;;;;;;;;4989207;28;20216;-46
2023/09/18 10:00:29;;;;;;;3.53;0.90;;;;;;;;;;4992611;28;20227;-45
2023/09/18 10:02:59;;;;;;;2.90;1.43;;;;;;;;;;4982584;28;20233;-43
2023/09/18 10:05:28;;;;;;;1.13;0.83;;;;;;;;;;4984899;28;20251;-42
2023/09/18 10:07:58;;;;;;;2.67;0.90;;;;;;;;;;4992793;28;20207;-41
2023/09/18 10:10:28;;;;;;;1.40;0.83;;;;;;;;;;4988921;28;20220;-40
2023/09/18 10:12:55;;;;;;;1.90;1.10;;;;;;;;;;4990118;28;20271;-43
2023/09/18 10:15:23;;;;;;;3.70;1.20;;;;;;;;;;4990621;28;20219;-43
2023/09/18 10:17:53;;;;;;;2.37;1.10;;;;;;;;;;4987214;28;20294;-41
2023/09/18 10:20:20;;;;;;;1.43;1.10;;;;;;;;;;4990958;28;20220;-43
2023/09/18 10:22:50;;;;;;;2.17;0.97;;;;;;;;;;4992678;28;20295;-38
2023/09/18 10:25:19;;;;;;;3.93;1.03;;;;;;;;;;4983904;28;20572;-45
2023/09/18 10:27:49;;;;;;;1.30;1.10;;;;;;;;;;4989987;28;20298;-43
2023/09/18 10:30:18;;;;;;;1.47;0.97;;;;;;;;;;4993119;28;20230;-44
2023/09/18 10:32:46;;;;;;;3.87;1.30;;;;;;;;;;4989068;28;20216;-41
2023/09/18 10:35:13;;;;;;;2.33;1.30;;;;;;;;;;4984151;28;20223;-45
2023/09/18 10:37:41;;;;;;;2.03;1.10;;;;;;;;;;4992360;28;20208;-38
2023/09/18 10:40:09;;;;;;;1.73;1.00;;;;;;;;;;4985509;28;20226;-43
2023/09/18 10:42:39;;;;;;;1.43;1.00;;;;;;;;;;4990702;28;20207;-43
2023/09/18 10:45:10;;;;;;;3.67;1.90;;;;;;;;;;4991963;28;20221;-42
2023/09/18 10:47:38;;;;;;;1.53;0.90;;;;;;;;;;4991666;28;20253;-45
2023/09/18 10:50:07;;;;;;;2.33;1.20;;;;;;;;;;4982894;28;20220;-42
2023/09/18 10:52:34;;;;;;;1.43;1.03;;;;;;;;;;4990402;28;20530;-43
2023/09/18 10:55:03;;;;;;;3.20;1.07;;;;;;;;;;4978355;28;20229;-42
2023/09/18 10:57:34;;;;;;;4.30;1.10;;;;;;;;;;4988592;28;20296;-44
2023/09/18 11:00:02;;;;;;;1.37;0.83;;;;;;;;;;4992249;28;20231;-41
2023/09/18 11:02:31;;;;;;;1.73;0.90;;;;;;;;;;4991353;28;20219;-39
2023/09/18 11:04:58;;;;;;;2.23;1.10;;;;;;;;;;4983878;28;20211;-42
2023/09/18 11:07:25;;;;;;;1.97;0.97;;;;;;;;;;4992099;28;20208;-40
2023/09/18 11:09:52;;;;;;;1.63;0.87;;;;;;;;;;4990010;28;20223;-40
2023/09/18 11:12:20;;;;;;;1.73;1.40;;;;;;;;;;4989401;28;20290;-39
2023/09/18 11:14:49;;;;;;;1.50;1.10;;;;;;;;;;4991982;28;20223;-45
2023/09/18 11:17:37;;;;;;;1.53;1.00;;;;;;;;;;4992846;28;20302;-44
2023/09/18 11:20:11;;;;;;;3.20;1.33;;;;;;;;;;4989267;28;20227;-41
2023/09/18 11:22:39;;;;;;;2.27;0.90;;;;;;;;;;4987218;28;20235;-40
2023/09/18 11:25:25;;;;;;;1.40;1.00;;;;;;;;;;4980672;28;20207;-44
2023/09/18 11:27:56;;;;;;;1.97;1.00;;;;;;;;;;4988699;28;20208;-40
2023/09/18 11:30:23;;;;;;;2.27;1.20;;;;;;;;;;4989294;28;20615;-44
2023/09/18 11:32:52;;;;;;;1.63;0.90;;;;;;;;;;4988761;28;20287;-42
2023/09/18 11:35:19;;;;;;;2.07;1.07;;;;;;;;;;4985970;28;20230;-37
2023/09/18 11:37:47;;;;;;;3.07;1.20;;;;;;;;;;4991741;28;20210;-40
2023/09/18 11:40:33;;;;;;;2.13;1.20;;;;;;;;;;4980696;28;20953;-44
2023/09/18 11:43:19;;;;;;;1.43;0.87;;;;;;;;;;4988067;28;20218;-40
2023/09/18 11:45:50;;;;;;;3.53;1.00;;;;;;;;;;4993342;28;20219;-42
2023/09/18 11:48:19;;;;;;;1.80;1.13;;;;;;;;;;4988397;28;20227;-43
2023/09/18 11:50:50;;;;;;;2.13;1.10;;;;;;;;;;4991558;28;20234;-41
2023/09/18 11:53:19;;;;;;;3.10;1.20;;;;;;;;;;4994861;28;20202;-45
2023/09/18 11:55:46;;;;;;;1.83;1.03;;;;;;;;;;4988103;28;20228;-44
2023/09/18 11:58:13;;;;;;;2.33;1.00;;;;;;;;;;4992158;28;20214;-45
2023/09/18 12:00:46;;;;;;;1.93;0.80;;;;;;;;;;4991733;28;20689;-45
2023/09/18 12:03:25;;;;;;;0.70;0.70;;;;;;;;;;4995071;28;20203;-43
2023/09/18 12:05:57;;;;;;;1.17;0.90;;;;;;;;;;4986538;28;20218;-45
2023/09/18 12:08:26;;;;;;;1.43;0.70;;;;;;;;;;4988695;28;20246;-40
2023/09/18 12:10:53;;;;;;;0.87;0.80;;;;;;;;;;4980249;28;20240;-45
2023/09/18 12:13:20;;;;;;;1.23;0.83;;;;;;;;;;4986051;28;20275;-41
2023/09/18 12:15:48;;;;;;;2.00;1.00;;;;;;;;;;4982760;28;20227;-45
2023/09/18 12:18:16;;;;;;;1.93;0.77;;;;;;;;;;4991447;28;20206;-44
2023/09/18 12:20:48;;;;;;;1.47;0.70;;;;;;;;;;4986793;28;20259;-42
2023/09/18 12:23:15;;;;;;;3.97;1.10;;;;;;;;;;4992109;28;20200;-42
2023/09/18 12:25:43;;;;;;;1.37;0.80;;;;;;;;;;4989956;28;20203;-46
2023/09/18 12:28:10;;;;;;;4.90;0.87;;;;;;;;;;4994149;28;20214;-45
2023/09/18 12:30:38;;;;;;;2.00;0.93;;;;;;;;;;4994627;28;20242;-44
2023/09/18 12:33:06;;;;;;;1.50;0.70;;;;;;;;;;4992362;28;20262;-44
2023/09/18 12:35:33;;;;;;;1.47;0.90;;;;;;;;;;4991279;28;20225;-39
2023/09/18 12:38:04;;;;;;;2.83;1.00;;;;;;;;;;4995618;28;20270;-46
2023/09/18 12:40:33;;;;;;;3.20;0.80;;;;;;;;;;4990546;28;20286;-45
2023/09/18 12:43:01;;;;;;;3.17;1.03;;;;;;;;;;4993616;28;20211;-43
2023/09/18 12:45:29;;;;;;;2.07;0.67;;;;;;;;;;4994292;28;20744;-40
2023/09/18 12:47:57;;;;;;;2.53;0.70;;;;;;;;;;4993815;28;20215;-46
2023/09/18 12:50:24;;;;;;;1.40;0.80;;;;;;;;;;4986904;28;20272;-42
2023/09/18 12:53:15;;;;;;;1.03;0.97;;;;;;;;;;4992583;28;20207;-41
2023/09/18 12:55:43;;;;;;;3.00;1.03;;;;;;;;;;4986967;28;20257;-38
2023/09/18 12:58:13;;;;;;;2.90;0.80;;;;;;;;;;4990677;28;20214;-42
2023/09/18 13:00:46;;;;;;;2.50;0.70;;;;;;;;;;4994159;28;20259;-38
2023/09/18 13:03:14;;;;;;;2.37;0.80;;;;;;;;;;4993552;28;20202;-44
2023/09/18 13:05:41;;;;;;;2.93;0.60;;;;;;;;;;4984148;28;20307;-46
2023/09/18 13:08:11;;;;;;;1.40;0.90;;;;;;;;;;4986068;28;20562;-44
2023/09/18 13:10:50;;;;;;;2.97;0.90;;;;;;;;;;4981041;28;20239;-41
2023/09/18 13:13:18;;;;;;;1.33;0.97;;;;;;;;;;4989994;28;20199;-42
2023/09/18 13:15:47;;;;;;;1.60;1.00;;;;;;;;;;4991806;28;20231;-41
2023/09/18 13:18:14;;;;;;;1.40;0.80;;;;;;;;;;4993193;28;20208;-38
2023/09/18 13:20:42;;;;;;;0.70;0.70;;;;;;;;;;4991819;28;20227;-45
2023/09/18 13:23:09;;;;;;;1.73;0.80;;;;;;;;;;4994127;28;20196;-44
2023/09/18 13:25:38;;;;;;;1.53;0.90;;;;;;;;;;4985889;28;20208;-41
2023/09/18 13:28:07;;;;;;;2.20;0.80;;;;;;;;;;4989733;28;20325;-42
2023/09/18 13:30:35;;;;;;;1.50;0.83;;;;;;;;;;4993672;28;20226;-39
2023/09/18 13:33:03;;;;;;;1.83;0.67;;;;;;;;;;4993430;28;20294;-43
2023/09/18 13:35:31;;;;;;;0.67;0.63;;;;;;;;;;4988410;28;20223;-46
2023/09/18 13:37:58;;;;;;;1.55;1.00;;;;;;;;;;4992834;28;20397;-42
2023/09/18 13:40:25;;;;;;;1.33;0.80;;;;;;;;;;4989421;28;20228;-37
2023/09/18 13:42:53;;;;;;;0.67;0.67;;;;;;;;;;4992901;28;20238;-45
2023/09/18 13:45:21;;;;;;;0.97;0.67;;;;;;;;;;4993809;28;20204;-38
2023/09/18 13:47:50;;;;;;;1.20;0.70;;;;;;;;;;4992731;28;20218;-45
2023/09/18 13:50:17;;;;;;;0.80;0.80;;;;;;;;;;4986574;28;20286;-43
2023/09/18 13:53:03;;;;;;;2.13;1.00;;;;;;;;;;4992262;28;20207;-43
2023/09/18 13:55:31;;;;;;;1.85;0.90;;;;;;;;;;4981046;28;20215;-44
2023/09/18 13:57:58;;;;;;;1.63;1.03;;;;;;;;;;4990697;28;20523;-46
2023/09/18 14:00:26;;;;;;;3.70;0.93;;;;;;;;;;4993161;28;20265;-43
2023/09/18 14:02:54;;;;;;;0.73;0.73;;;;;;;;;;4984245;28;20283;-44
2023/09/18 14:05:21;;;;;;;2.10;1.33;;;;;;;;;;4986980;28;20243;-45
2023/09/18 14:07:48;;;;;;;1.33;0.90;;;;;;;;;;4991004;28;20647;-44
2023/09/18 14:10:17;;;;;;;1.20;0.63;;;;;;;;;;4984526;28;20255;-42
2023/09/18 14:12:44;;;;;;;3.23;0.80;;;;;;;;;;4992207;28;20207;-41
2023/09/18 14:15:12;;;;;;;2.60;0.80;;;;;;;;;;4991535;28;20315;-42
2023/09/18 14:17:40;;;;;;;1.07;0.80;;;;;;;;;;4990757;28;20514;-42
2023/09/18 14:20:08;;;;;;;1.83;1.00;;;;;;;;;;4988899;28;20326;-38
2023/09/18 14:22:36;;;;;;;3.03;1.00;;;;;;;;;;4985459;28;20208;-41
2023/09/18 14:25:05;;;;;;;1.83;0.87;;;;;;;;;;4988199;28;20203;-43
2023/09/18 14:27:32;;;;;;;1.23;1.00;;;;;;;;;;4991483;28;20290;-38
2023/09/18 14:30:00;;;;;;;2.23;0.90;;;;;;;;;;4989966;28;20235;-45
2023/09/18 14:32:28;;;;;;;2.20;0.90;;;;;;;;;;4986108;28;20272;-44
2023/09/18 14:34:58;;;;;;;1.57;1.10;;;;;;;;;;4986789;28;20207;-40
2023/09/18 14:37:25;;;;;;;0.83;0.70;;;;;;;;;;4988089;28;20227;-40
2023/09/18 14:39:55;;;;;;;1.47;1.00;;;;;;;;;;4982873;28;20220;-40
2023/09/18 14:42:23;;;;;;;2.67;0.77;;;;;;;;;;4986411;28;20199;-42
2023/09/18 14:44:50;;;;;;;0.80;0.80;;;;;;;;;;4991258;28;20221;-41
2023/09/18 14:47:17;;;;;;;2.37;0.90;;;;;;;;;;4988712;28;20200;-41
2023/09/18 14:49:46;;;;;;;1.27;0.80;;;;;;;;;;4990001;28;20231;-43
2023/09/18 14:52:16;;;;;;;3.33;0.82;;;;;;;;;;4989460;28;20216;-43